EBFN

Koksijde Air Base Airport

Koksijde, Belgium
TAF EBFN 180841Z 1810/1819 06010G20KT 9999 SCT065 PROB40 TEMPO 1810/1821 SCT011
Issued Valid From Valid To
Oct-18 @ 08:41 UTC
(3 hours ago)
Oct-18 @ 10:00 UTC
(2 hours ago)
Oct-18 @ 19:00 UTC
(in 7 hours)
Oct-18 @ 10:00 to Oct-18 @ 19:00
TAF EBFN 180841Z 1810/1819 06010G20KT 9999 SCT065
Wind Visibility Clouds
60° at 10 knots
 Gusting to 20 knots
10,000+ meters
  • Scattered at 6,500' AGL
Temporary  (Probability 40%) Oct-18 @ 10:00 to Oct-18 @ 21:00
PROB40 TEMPO 1810/1821 SCT011
Clouds
  • Scattered at 1,100' AGL
TAF EBFN 180841Z 1810/1819 06010G20KT 9999 SCT065 PROB40 TEMPO 1810/1821 SCT011
Issued Oct-18 @ 08:41 UTC
(3 hours ago)
Valid From Oct-18 @ 10:00 UTC
(2 hours ago)
Valid To Oct-18 @ 19:00 UTC
(in 7 hours)
Oct-18 @ 10:00 - Oct-18 @ 19:00
Wind Visibility
60° at 10 knots
 Gusting to 20 knots
10,000+ meters
Clouds
  • Scattered at 6,500' AGL
Probability 40% Temporary Oct-18 @ 10:00 - Oct-18 @ 21:00
Clouds
  • Scattered at 1,100' AGL